createdAt,value
2022-09-17T00:01:21.994Z,9.22
2022-09-17T00:03:55.640Z,9.23
2022-09-17T00:06:24.500Z,9.22
2022-09-17T00:08:53.765Z,9.23
2022-09-17T00:11:25.211Z,9.29
2022-09-17T00:13:54.198Z,9.26
2022-09-17T00:16:24.966Z,9.33
2022-09-17T00:18:52.365Z,9.35
2022-09-17T00:21:20.872Z,9.29
2022-09-17T00:23:48.483Z,9.31
2022-09-17T00:26:15.734Z,9.32
2022-09-17T00:28:45.462Z,9.34
2022-09-17T00:31:15.129Z,9.35
2022-09-17T00:33:42.462Z,9.28
2022-09-17T00:36:10.018Z,9.28
2022-09-17T00:38:38.660Z,9.33
2022-09-17T00:41:07.125Z,9.35
2022-09-17T00:43:47.340Z,9.37
2022-09-17T00:46:37.913Z,9.39
2022-09-17T00:49:11.308Z,9.45
2022-09-17T00:51:55.059Z,9.47
2022-09-17T00:54:26.269Z,9.53
2022-09-17T00:56:53.337Z,9.48
2022-09-17T00:59:24.662Z,9.54
2022-09-17T01:01:52.940Z,9.45
2022-09-17T01:04:23.117Z,9.42
2022-09-17T01:07:01.380Z,9.39
2022-09-17T01:09:53.483Z,9.46
2022-09-17T01:12:58.596Z,9.46
2022-09-17T01:15:49.424Z,9.34
2022-09-17T01:18:39.368Z,9.35
2022-09-17T01:21:24.565Z,9.34
2022-09-17T01:24:18.152Z,9.34
2022-09-17T01:27:17.251Z,9.37
2022-09-17T01:30:08.847Z,9.32
2022-09-17T01:32:42.037Z,9.32
2022-09-17T01:35:32.527Z,9.31
2022-09-17T01:38:27.298Z,9.31
2022-09-17T01:41:00.429Z,9.28
2022-09-17T01:43:33.525Z,9.28
2022-09-17T01:46:10.290Z,9.27
2022-09-17T01:48:44.486Z,9.28
2022-09-17T01:51:16.799Z,9.28
2022-09-17T01:53:51.748Z,9.29
2022-09-17T01:56:26.370Z,9.32
2022-09-17T01:59:07.519Z,9.29
2022-09-17T02:01:38.422Z,9.30
2022-09-17T02:04:11.718Z,9.31
2022-09-17T02:06:44.486Z,9.30
2022-09-17T02:09:18.126Z,9.27
2022-09-17T02:11:51.541Z,9.31
2022-09-17T02:14:25.405Z,9.34
2022-09-17T02:16:57.117Z,9.30
2022-09-17T02:19:32.320Z,9.27
2022-09-17T02:22:19.681Z,9.28
2022-09-17T02:25:02.945Z,9.25
2022-09-17T02:27:51.894Z,9.27
2022-09-17T02:30:19.433Z,9.25
2022-09-17T02:32:46.664Z,9.26
2022-09-17T02:35:14.513Z,9.28
2022-09-17T02:37:43.863Z,9.23
2022-09-17T02:40:14.575Z,9.22
2022-09-17T02:43:08.501Z,9.20
2022-09-17T02:46:03.291Z,9.20
2022-09-17T02:48:57.374Z,9.23
2022-09-17T02:51:30.286Z,9.23
2022-09-17T02:54:29.612Z,9.24
2022-09-17T02:56:57.182Z,9.27
2022-09-17T02:59:31.836Z,9.23
2022-09-17T03:02:07.569Z,9.25
2022-09-17T03:04:36.036Z,9.27
2022-09-17T03:07:09.019Z,9.23
2022-09-17T03:09:36.185Z,9.22
2022-09-17T03:12:04.144Z,9.23
2022-09-17T03:14:31.893Z,9.27
2022-09-17T03:16:58.873Z,9.26
2022-09-17T03:19:25.969Z,9.25
2022-09-17T03:21:53.033Z,9.28
2022-09-17T03:24:20.218Z,9.26
2022-09-17T03:26:50.718Z,9.26
2022-09-17T03:29:20.195Z,9.27
2022-09-17T03:31:47.358Z,9.26
2022-09-17T03:34:14.582Z,9.30
2022-09-17T03:36:41.869Z,9.28
2022-09-17T03:39:09.019Z,9.31
2022-09-17T03:41:36.406Z,9.26
2022-09-17T03:44:03.548Z,9.32
2022-09-17T03:46:30.733Z,9.30
2022-09-17T03:48:57.921Z,9.33
2022-09-17T03:51:25.060Z,9.35
2022-09-17T03:53:52.175Z,9.37
2022-09-17T03:56:19.645Z,9.31
2022-09-17T03:58:47.083Z,9.33
2022-09-17T04:01:14.875Z,9.22
2022-09-17T04:03:42.255Z,9.25
2022-09-17T04:06:09.366Z,9.22
2022-09-17T04:08:36.720Z,9.25
2022-09-17T04:11:03.916Z,9.26
2022-09-17T04:13:31.176Z,9.24
2022-09-17T04:15:58.315Z,9.23
2022-09-17T04:18:25.517Z,9.19
2022-09-17T04:20:53.476Z,9.22
2022-09-17T04:23:20.883Z,9.21
2022-09-17T04:25:47.843Z,9.16
2022-09-17T04:28:14.965Z,9.09
2022-09-17T04:30:43.321Z,9.14
2022-09-17T04:33:10.464Z,9.06
2022-09-17T04:35:37.645Z,9.13
2022-09-17T04:38:04.820Z,9.10
2022-09-17T04:40:32.021Z,8.99
2022-09-17T04:42:59.970Z,8.99
2022-09-17T04:45:26.966Z,8.91
2022-09-17T04:47:53.973Z,9.04
2022-09-17T04:50:21.463Z,8.91
2022-09-17T04:52:50.025Z,8.93
2022-09-17T04:55:17.478Z,8.88
2022-09-17T04:57:53.184Z,8.92
2022-09-17T05:00:22.191Z,8.92
2022-09-17T05:02:52.610Z,8.81
2022-09-17T05:05:20.629Z,8.78
2022-09-17T05:07:48.124Z,8.78
2022-09-17T05:10:17.597Z,8.79
2022-09-17T05:12:52.558Z,8.78
2022-09-17T05:15:20.494Z,8.84
2022-09-17T05:17:47.635Z,8.81
2022-09-17T05:20:16.299Z,8.73
2022-09-17T05:22:45.212Z,8.78
2022-09-17T05:25:14.161Z,8.78
2022-09-17T05:27:42.125Z,8.79
2022-09-17T05:30:09.661Z,8.72
2022-09-17T05:32:37.701Z,8.80
2022-09-17T05:35:06.108Z,8.77
2022-09-17T05:37:33.509Z,8.78
2022-09-17T05:40:00.854Z,8.78
2022-09-17T05:42:28.237Z,8.74
2022-09-17T05:44:55.379Z,8.76
2022-09-17T05:47:22.629Z,8.80
2022-09-17T05:49:49.693Z,8.88
2022-09-17T05:52:16.797Z,8.87
2022-09-17T05:54:43.949Z,8.93
2022-09-17T05:57:11.108Z,8.86
2022-09-17T05:59:38.219Z,8.85
2022-09-17T06:02:05.380Z,8.80
2022-09-17T06:04:34.921Z,8.81
2022-09-17T06:07:09.404Z,8.91
2022-09-17T06:09:37.630Z,8.88
2022-09-17T06:12:05.277Z,8.92
2022-09-17T06:14:32.639Z,8.99
2022-09-17T06:17:00.692Z,8.86
2022-09-17T06:19:27.970Z,8.92
2022-09-17T06:21:55.416Z,8.99
2022-09-17T06:24:22.498Z,8.98
2022-09-17T06:26:49.598Z,9.01
2022-09-17T06:29:16.814Z,8.97
2022-09-17T06:31:48.914Z,9.00
2022-09-17T06:34:17.667Z,8.98
2022-09-17T06:36:44.763Z,9.01
2022-09-17T06:39:11.936Z,9.00
2022-09-17T06:41:39.267Z,8.91
2022-09-17T06:44:06.462Z,8.98
2022-09-17T06:46:33.637Z,8.99
2022-09-17T06:49:00.865Z,9.03
2022-09-17T06:51:28.052Z,8.98
2022-09-17T06:53:55.320Z,8.96
2022-09-17T06:56:22.441Z,8.99
2022-09-17T06:58:49.728Z,8.92
2022-09-17T07:01:16.882Z,8.92
2022-09-17T07:03:44.148Z,8.87
2022-09-17T07:06:11.361Z,8.84
2022-09-17T07:08:39.592Z,8.87
2022-09-17T07:11:08.099Z,8.88
2022-09-17T07:13:35.902Z,8.97
2022-09-17T07:16:05.320Z,8.90
2022-09-17T07:18:33.149Z,8.88
2022-09-17T07:21:02.030Z,8.92
2022-09-17T07:23:32.266Z,8.94
2022-09-17T07:26:01.890Z,8.90
2022-09-17T07:28:29.397Z,8.98
2022-09-17T07:30:57.483Z,8.98
2022-09-17T07:33:28.176Z,9.00
2022-09-17T07:35:57.948Z,9.12
2022-09-17T07:38:26.277Z,9.13
2022-09-17T07:40:55.610Z,9.13
2022-09-17T07:43:22.912Z,9.20
2022-09-17T07:45:50.050Z,9.26
2022-09-17T07:48:17.136Z,9.37
2022-09-17T07:50:44.223Z,9.51
2022-09-17T07:53:11.621Z,9.57
2022-09-17T07:55:38.988Z,9.54
2022-09-17T07:58:06.150Z,9.53
2022-09-17T08:00:33.436Z,9.55
2022-09-17T08:03:00.797Z,9.51
2022-09-17T08:05:28.017Z,9.52
2022-09-17T08:07:55.667Z,9.69
2022-09-17T08:10:23.669Z,9.63
2022-09-17T08:12:54.635Z,9.63
2022-09-17T08:15:22.757Z,9.63
2022-09-17T08:17:51.187Z,9.65
2022-09-17T08:20:19.257Z,9.80
2022-09-17T08:22:49.969Z,9.89
2022-09-17T08:25:17.697Z,9.88
2022-09-17T08:27:44.943Z,9.89
2022-09-17T08:30:12.215Z,10.00
2022-09-17T08:32:39.482Z,10.09
2022-09-17T08:35:07.464Z,10.22
2022-09-17T08:37:35.224Z,10.20
2022-09-17T08:40:02.604Z,10.27
2022-09-17T08:42:41.872Z,10.36
2022-09-17T08:45:19.142Z,10.38
2022-09-17T08:47:48.341Z,10.41
2022-09-17T08:50:19.009Z,10.48
2022-09-17T08:53:34.273Z,10.49
2022-09-17T08:56:21.523Z,10.45
2022-09-17T08:59:21.549Z,10.42
2022-09-17T09:02:01.150Z,10.37
2022-09-17T09:04:36.451Z,10.33
2022-09-17T09:07:08.092Z,10.30
2022-09-17T09:09:40.092Z,10.43
2022-09-17T09:12:16.138Z,10.51
2022-09-17T09:14:58.695Z,10.63
2022-09-17T09:17:35.278Z,10.90
2022-09-17T09:20:02.723Z,11.31
2022-09-17T09:22:42.992Z,11.46
2022-09-17T09:25:27.017Z,11.63
2022-09-17T09:28:01.414Z,11.74
2022-09-17T09:30:57.086Z,11.71
2022-09-17T09:33:38.199Z,11.87
2022-09-17T09:36:08.262Z,12.10
2022-09-17T09:38:50.422Z,11.93
2022-09-17T09:41:31.798Z,11.54
2022-09-17T09:44:05.618Z,10.77
2022-09-17T09:47:20.587Z,10.33
2022-09-17T09:50:48.419Z,10.30
2022-09-17T09:54:16.168Z,10.47
2022-09-17T09:56:49.998Z,10.64
2022-09-17T09:59:19.229Z,10.95
2022-09-17T10:01:46.982Z,11.19
2022-09-17T10:04:23.048Z,11.13
2022-09-17T10:06:59.903Z,10.97
2022-09-17T10:09:30.014Z,11.54
2022-09-17T10:12:01.336Z,11.21
2022-09-17T10:14:31.336Z,10.86
2022-09-17T10:17:14.847Z,10.86
2022-09-17T10:19:42.915Z,10.68
2022-09-17T10:22:28.490Z,10.63
2022-09-17T10:24:58.064Z,10.56
2022-09-17T10:27:26.763Z,10.72
2022-09-17T10:30:08.944Z,11.01
2022-09-17T10:32:36.417Z,11.03
2022-09-17T10:35:08.478Z,11.48
2022-09-17T10:37:46.935Z,11.74
2022-09-17T10:40:21.246Z,11.44
2022-09-17T10:43:13.218Z,11.13
2022-09-17T10:45:44.933Z,11.01
2022-09-17T10:48:18.289Z,11.13
2022-09-17T10:50:50.197Z,11.43
2022-09-17T10:53:18.575Z,11.86
2022-09-17T10:55:56.359Z,12.24
2022-09-17T10:58:26.746Z,12.04
2022-09-17T11:01:09.259Z,11.61
2022-09-17T11:03:48.619Z,11.83
2022-09-17T11:06:31.379Z,12.29
2022-09-17T11:09:15.629Z,12.62
2022-09-17T11:11:52.018Z,12.57
2022-09-17T11:14:41.380Z,12.50
2022-09-17T11:17:33.633Z,12.92
2022-09-17T11:20:25.776Z,12.55
2022-09-17T11:23:05.269Z,12.65
2022-09-17T11:25:45.777Z,12.54
2022-09-17T11:28:45.237Z,12.39
2022-09-17T11:31:37.573Z,12.19
2022-09-17T11:34:27.504Z,11.79
2022-09-17T11:37:14.402Z,11.13
2022-09-17T11:39:55.478Z,10.10
2022-09-17T11:42:32.930Z,9.49
2022-09-17T11:45:15.175Z,9.33
2022-09-17T11:47:49.819Z,9.29
2022-09-17T11:50:28.949Z,9.19
2022-09-17T11:53:23.142Z,9.15
2022-09-17T11:55:53.269Z,9.31
2022-09-17T11:59:06.945Z,9.55
2022-09-17T12:01:57.493Z,10.35
2022-09-17T12:04:38.449Z,10.78
2022-09-17T12:07:33.715Z,11.23
2022-09-17T12:10:15.431Z,11.09
2022-09-17T12:12:50.731Z,10.90
2022-09-17T12:15:22.672Z,10.47
2022-09-17T12:18:31.739Z,10.17
2022-09-17T12:21:02.807Z,10.05
2022-09-17T12:23:54.165Z,10.01
2022-09-17T12:26:44.698Z,9.99
2022-09-17T12:29:36.452Z,10.04
2022-09-17T12:32:20.782Z,9.95
2022-09-17T12:35:17.193Z,10.00
2022-09-17T12:38:03.022Z,10.55
2022-09-17T12:40:50.579Z,11.07
2022-09-17T12:43:35.672Z,11.29
2022-09-17T12:46:34.735Z,11.49
2022-09-17T12:49:07.940Z,11.61
2022-09-17T12:51:59.957Z,12.01
2022-09-17T12:55:04.668Z,12.31
2022-09-17T12:57:47.465Z,12.03
2022-09-17T13:00:18.625Z,11.50
2022-09-17T13:02:53.561Z,11.31
2022-09-17T13:05:58.231Z,11.09
2022-09-17T13:08:56.168Z,10.97
2022-09-17T13:11:29.460Z,11.03
2022-09-17T13:14:07.862Z,11.00
2022-09-17T13:16:44.510Z,10.58
2022-09-17T13:19:36.301Z,10.34
2022-09-17T13:22:20.735Z,10.22
2022-09-17T13:25:03.317Z,9.97
2022-09-17T13:27:32.698Z,9.97
2022-09-17T13:30:00.956Z,9.90
2022-09-17T13:32:37.395Z,9.97
2022-09-17T13:35:13.732Z,10.11
2022-09-17T13:37:54.094Z,10.39
2022-09-17T13:40:33.287Z,10.60
2022-09-17T13:43:17.029Z,11.12
2022-09-17T13:46:01.672Z,11.66
2022-09-17T13:48:31.856Z,12.06
2022-09-17T13:51:31.152Z,12.30
2022-09-17T13:54:02.107Z,12.67
2022-09-17T13:56:38.126Z,12.96
2022-09-17T13:59:18.103Z,13.17
2022-09-17T14:01:57.497Z,13.19
2022-09-17T14:04:55.310Z,13.38
2022-09-17T14:07:23.515Z,13.52
2022-09-17T14:09:58.849Z,13.39
2022-09-17T14:12:41.268Z,13.34
2022-09-17T14:15:31.501Z,13.16
2022-09-17T14:17:58.976Z,13.26
2022-09-17T14:20:26.504Z,13.27
2022-09-17T14:22:58.150Z,13.00
2022-09-17T14:25:49.433Z,13.06
2022-09-17T14:28:30.440Z,12.98
2022-09-17T14:30:57.932Z,12.75
2022-09-17T14:33:31.952Z,12.58
2022-09-17T14:36:08.908Z,12.51
2022-09-17T14:38:46.790Z,12.39
2022-09-17T14:41:14.099Z,12.44
2022-09-17T14:43:48.421Z,12.54
2022-09-17T14:46:24.553Z,12.51
2022-09-17T14:48:52.554Z,12.43
2022-09-17T14:51:22.326Z,12.41
2022-09-17T14:54:06.606Z,12.24
2022-09-17T14:56:40.995Z,12.01
2022-09-17T14:59:21.332Z,11.77
2022-09-17T15:01:49.014Z,11.43
2022-09-17T15:04:16.114Z,11.11
2022-09-17T15:06:44.255Z,11.05
2022-09-17T15:09:22.833Z,11.07
2022-09-17T15:11:54.242Z,11.07
2022-09-17T15:14:27.933Z,11.42
2022-09-17T15:16:58.444Z,11.87
2022-09-17T15:19:36.552Z,12.01
2022-09-17T15:22:10.094Z,12.27
2022-09-17T15:24:48.072Z,12.27
2022-09-17T15:27:31.044Z,12.01
2022-09-17T15:30:03.808Z,11.77
2022-09-17T15:32:33.190Z,11.72
2022-09-17T15:35:22.141Z,11.65
2022-09-17T15:38:11.948Z,11.63
2022-09-17T15:40:41.792Z,11.53
2022-09-17T15:43:28.421Z,11.47
2022-09-17T15:45:58.559Z,11.35
2022-09-17T15:48:28.625Z,11.63
2022-09-17T15:50:58.600Z,11.84
2022-09-17T15:53:31.127Z,12.06
2022-09-17T15:56:09.613Z,12.14
2022-09-17T15:58:42.801Z,12.19
2022-09-17T16:01:16.350Z,12.16
2022-09-17T16:03:43.844Z,12.14
2022-09-17T16:06:20.824Z,11.99
2022-09-17T16:08:52.083Z,11.86
2022-09-17T16:11:31.308Z,11.77
2022-09-17T16:14:00.728Z,11.74
2022-09-17T16:16:38.146Z,11.67
2022-09-17T16:19:06.535Z,11.60
2022-09-17T16:21:35.037Z,11.42
2022-09-17T16:24:03.757Z,11.26
2022-09-17T16:26:35.003Z,11.21
2022-09-17T16:29:05.739Z,11.16
2022-09-17T16:31:34.441Z,11.14
2022-09-17T16:34:01.970Z,11.10
2022-09-17T16:36:31.288Z,11.07
2022-09-17T16:38:59.358Z,10.98
2022-09-17T16:41:26.517Z,11.04
2022-09-17T16:43:53.562Z,11.03
2022-09-17T16:46:20.818Z,10.64
2022-09-17T16:48:50.978Z,10.17
2022-09-17T16:51:18.557Z,9.95
2022-09-17T16:53:45.972Z,9.86
2022-09-17T16:56:15.448Z,9.73
2022-09-17T16:58:43.250Z,9.70
2022-09-17T17:01:12.870Z,9.65
2022-09-17T17:03:40.481Z,9.67
2022-09-17T17:06:16.058Z,9.65
2022-09-17T17:08:43.160Z,9.61
2022-09-17T17:11:12.031Z,9.69
2022-09-17T17:13:39.267Z,9.80
2022-09-17T17:16:08.035Z,9.89
2022-09-17T17:18:35.666Z,10.01
2022-09-17T17:21:10.807Z,9.98
2022-09-17T17:23:38.267Z,10.04
2022-09-17T17:26:05.655Z,10.13
2022-09-17T17:28:35.242Z,10.06
2022-09-17T17:31:04.356Z,10.06
2022-09-17T17:33:31.618Z,10.06
2022-09-17T17:36:07.821Z,10.03
2022-09-17T17:38:36.418Z,10.09
2022-09-17T17:41:15.207Z,10.11
2022-09-17T17:43:43.067Z,10.16
2022-09-17T17:46:12.218Z,10.14
2022-09-17T17:48:39.511Z,10.09
2022-09-17T17:51:09.676Z,10.05
2022-09-17T17:53:37.433Z,10.02
2022-09-17T17:56:07.502Z,9.91
2022-09-17T17:58:35.516Z,9.92
2022-09-17T18:01:13.120Z,9.83
2022-09-17T18:03:42.140Z,9.80
2022-09-17T18:06:11.092Z,9.77
2022-09-17T18:08:39.920Z,9.80
2022-09-17T18:11:09.262Z,9.76
2022-09-17T18:13:37.777Z,9.62
2022-09-17T18:16:07.674Z,9.62
2022-09-17T18:18:44.502Z,9.56
2022-09-17T18:21:20.842Z,9.51
2022-09-17T18:23:48.414Z,9.50
2022-09-17T18:26:21.033Z,9.44
2022-09-17T18:28:49.434Z,9.42
2022-09-17T18:31:22.955Z,9.35
2022-09-17T18:33:54.584Z,9.32
2022-09-17T18:36:21.766Z,9.28
2022-09-17T18:38:48.856Z,9.24
2022-09-17T18:41:16.086Z,9.12
2022-09-17T18:43:43.249Z,9.09
2022-09-17T18:46:10.403Z,9.07
2022-09-17T18:48:37.639Z,8.98
2022-09-17T18:51:07.279Z,8.95
2022-09-17T18:53:37.382Z,8.86
2022-09-17T18:56:15.937Z,8.78
2022-09-17T18:58:45.983Z,8.85
2022-09-17T19:01:13.627Z,8.84
2022-09-17T19:03:41.095Z,8.84
2022-09-17T19:06:10.014Z,8.88
2022-09-17T19:08:38.014Z,8.87
2022-09-17T19:11:05.637Z,8.87
2022-09-17T19:13:35.981Z,8.88
2022-09-17T19:16:04.707Z,8.85
2022-09-17T19:18:33.258Z,8.86
2022-09-17T19:21:04.567Z,8.83
2022-09-17T19:23:32.169Z,8.80
2022-09-17T19:26:07.086Z,8.80
2022-09-17T19:28:35.657Z,8.81
2022-09-17T19:31:07.683Z,8.84
2022-09-17T19:33:35.236Z,8.81
2022-09-17T19:36:08.573Z,8.81
2022-09-17T19:38:36.110Z,8.84
2022-09-17T19:41:06.965Z,8.84
2022-09-17T19:43:34.345Z,8.89
2022-09-17T19:46:05.213Z,8.85
2022-09-17T19:48:33.145Z,8.86
2022-09-17T19:51:00.516Z,8.89
2022-09-17T19:53:27.907Z,8.90
2022-09-17T19:55:55.145Z,8.88
2022-09-17T19:58:22.501Z,8.76
2022-09-17T20:00:56.003Z,8.64
2022-09-17T20:03:23.556Z,8.44
2022-09-17T20:05:50.786Z,8.38
2022-09-17T20:08:18.154Z,8.33
2022-09-17T20:10:45.595Z,8.19
2022-09-17T20:13:12.989Z,8.11
2022-09-17T20:15:40.194Z,8.03
2022-09-17T20:18:07.340Z,8.03
2022-09-17T20:20:39.379Z,7.95
2022-09-17T20:23:06.949Z,7.97
2022-09-17T20:25:34.880Z,7.91
2022-09-17T20:28:03.960Z,7.95
2022-09-17T20:30:31.642Z,7.90
2022-09-17T20:32:59.632Z,7.97
2022-09-17T20:35:27.497Z,7.95
2022-09-17T20:38:57.193Z,7.81
2022-09-17T20:40:42.707Z,7.78
2022-09-17T20:43:10.035Z,7.80
2022-09-17T20:45:37.494Z,7.71
2022-09-17T20:48:04.744Z,7.59
2022-09-17T20:50:31.898Z,7.49
2022-09-17T20:53:00.226Z,7.48
2022-09-17T20:55:27.688Z,7.36
2022-09-17T20:57:54.788Z,7.33
2022-09-17T21:00:26.325Z,7.40
2022-09-17T21:02:54.230Z,7.39
2022-09-17T21:05:21.408Z,7.36
2022-09-17T21:07:49.353Z,7.39
2022-09-17T21:10:16.718Z,7.45
2022-09-17T21:12:45.905Z,7.38
2022-09-17T21:15:14.951Z,7.40
2022-09-17T21:17:42.527Z,7.38
2022-09-17T21:20:10.677Z,7.39
2022-09-17T21:22:37.747Z,7.44
2022-09-17T21:25:05.719Z,7.49
2022-09-17T21:27:33.050Z,7.55
2022-09-17T21:30:00.171Z,7.55
2022-09-17T21:32:27.485Z,7.63
2022-09-17T21:34:54.667Z,7.64
2022-09-17T21:37:21.784Z,7.65
2022-09-17T21:39:49.135Z,7.70
2022-09-17T21:42:19.084Z,7.73
2022-09-17T21:44:46.181Z,7.69
2022-09-17T21:47:13.329Z,7.70
2022-09-17T21:49:40.426Z,7.65
2022-09-17T21:52:07.657Z,7.74
2022-09-17T21:54:34.946Z,7.70
2022-09-17T21:57:02.090Z,7.67
2022-09-17T21:59:29.836Z,7.64
2022-09-17T22:01:57.574Z,7.66
2022-09-17T22:04:25.712Z,7.67
2022-09-17T22:06:53.456Z,7.68
2022-09-17T22:09:23.222Z,7.70
2022-09-17T22:11:51.992Z,7.79
2022-09-17T22:14:21.802Z,7.69
2022-09-17T22:16:52.586Z,7.66
2022-09-17T22:19:21.589Z,7.65
2022-09-17T22:21:51.634Z,7.69
2022-09-17T22:24:21.473Z,7.65
2022-09-17T22:26:56.608Z,7.71
2022-09-17T22:29:26.223Z,7.71
2022-09-17T22:31:53.646Z,7.64
2022-09-17T22:34:23.069Z,7.59
2022-09-17T22:36:50.813Z,7.60
2022-09-17T22:39:21.235Z,7.51
2022-09-17T22:41:49.260Z,7.43
2022-09-17T22:44:18.814Z,7.37
2022-09-17T22:46:48.128Z,7.35
2022-09-17T22:49:16.018Z,7.35
2022-09-17T22:51:43.888Z,7.37
2022-09-17T22:54:12.563Z,7.34
2022-09-17T22:56:40.297Z,7.34
2022-09-17T22:59:07.913Z,7.31
2022-09-17T23:01:36.464Z,7.30
2022-09-17T23:04:05.578Z,7.33
2022-09-17T23:06:36.211Z,7.35
2022-09-17T23:09:03.978Z,7.34
2022-09-17T23:11:33.927Z,7.32
2022-09-17T23:14:04.046Z,7.27
2022-09-17T23:16:36.562Z,7.31
2022-09-17T23:19:03.778Z,7.29
2022-09-17T23:21:31.498Z,7.27
2022-09-17T23:23:58.689Z,7.23
2022-09-17T23:26:26.916Z,7.22
2022-09-17T23:28:54.262Z,7.25
2022-09-17T23:31:23.896Z,7.22
2022-09-17T23:33:54.608Z,7.21
2022-09-17T23:36:24.631Z,7.23
2022-09-17T23:38:52.516Z,7.21
2022-09-17T23:41:21.186Z,7.22
2022-09-17T23:43:51.396Z,7.20
2022-09-17T23:46:20.661Z,7.22
2022-09-17T23:48:49.176Z,7.26
2022-09-17T23:51:16.902Z,7.27
2022-09-17T23:53:44.346Z,7.28
2022-09-17T23:56:15.139Z,7.32
2022-09-17T23:58:42.442Z,7.37
